Time;durP1;ratioP1;P1;durP2;ratioP2;P2;SDS_P1;SDS_P2;PMS_P1;PMS_P2;Temp;Humidity;BMP_temperature;BMP_pressure;BME280_temperature;BME280_humidity;BME280_pressure;Samples;Min_cycle;Max_cycle;Signal;HPM_P1;HPM_P2
2022/09/17 00:01:01;;;;;;;16.13;2.65;;;;;;;;;;5021262;28;20026;-84
2022/09/17 00:03:28;;;;;;;3.67;1.88;;;;;;;;;;5021508;28;20042;-84
2022/09/17 00:06:08;;;;;;;4.30;1.77;;;;;;;;;;5020575;28;20068;-84
2022/09/17 00:08:35;;;;;;;4.97;1.70;;;;;;;;;;5020600;28;20088;-83
2022/09/17 00:11:21;;;;;;;3.25;1.67;;;;;;;;;;5019230;28;20041;-83
2022/09/17 00:13:49;;;;;;;3.30;1.70;;;;;;;;;;5020625;28;20038;-84
2022/09/17 00:16:22;;;;;;;5.07;1.50;;;;;;;;;;5019387;28;20125;-84
2022/09/17 00:18:48;;;;;;;2.38;1.58;;;;;;;;;;5019954;28;20030;-84
2022/09/17 00:21:18;;;;;;;5.40;1.60;;;;;;;;;;5020695;28;20454;-84
2022/09/17 00:23:44;;;;;;;4.25;1.60;;;;;;;;;;5020751;28;20044;-83
2022/09/17 00:26:10;;;;;;;2.00;1.50;;;;;;;;;;5021269;28;20042;-84
2022/09/17 00:28:35;;;;;;;2.90;1.42;;;;;;;;;;5020454;28;20038;-84
2022/09/17 00:31:06;;;;;;;3.05;1.60;;;;;;;;;;5022203;28;20038;-84
2022/09/17 00:33:32;;;;;;;2.55;1.50;;;;;;;;;;5020936;28;20029;-84
2022/09/17 00:35:59;;;;;;;2.03;1.38;;;;;;;;;;5019568;28;20025;-84
2022/09/17 00:38:24;;;;;;;4.07;1.60;;;;;;;;;;5020503;28;20120;-84
2022/09/17 00:40:50;;;;;;;2.22;1.30;;;;;;;;;;5020063;28;20057;-83
2022/09/17 00:43:39;;;;;;;2.22;1.40;;;;;;;;;;5020690;28;20523;-84
2022/09/17 00:46:24;;;;;;;3.83;1.63;;;;;;;;;;5021627;28;20033;-84
2022/09/17 00:48:53;;;;;;;3.15;1.40;;;;;;;;;;5008782;28;20050;-84
2022/09/17 00:51:25;;;;;;;4.57;1.55;;;;;;;;;;5019376;28;20041;-84
2022/09/17 00:53:51;;;;;;;3.67;1.70;;;;;;;;;;5019619;28;20465;-84
2022/09/17 00:56:26;;;;;;;2.88;1.50;;;;;;;;;;5018844;28;20033;-84
2022/09/17 00:58:53;;;;;;;5.20;1.58;;;;;;;;;;5018489;28;20038;-84
2022/09/17 01:01:18;;;;;;;4.15;1.60;;;;;;;;;;5021041;28;20501;-84
2022/09/17 01:03:44;;;;;;;4.72;1.60;;;;;;;;;;5019344;28;20029;-82
2022/09/17 01:06:18;;;;;;;2.00;1.48;;;;;;;;;;5018849;28;20030;-84
2022/09/17 01:09:17;;;;;;;4.07;1.50;;;;;;;;;;5018267;28;20545;-82
2022/09/17 01:11:58;;;;;;;3.70;1.80;;;;;;;;;;5017015;28;20038;-83
2022/09/17 01:14:56;;;;;;;2.90;1.60;;;;;;;;;;5022396;28;20409;-84
2022/09/17 01:17:58;;;;;;;2.33;1.63;;;;;;;;;;5023522;28;20068;-84
2022/09/17 01:20:42;;;;;;;3.92;1.48;;;;;;;;;;5023412;28;20117;-84
2022/09/17 01:23:50;;;;;;;3.88;1.60;;;;;;;;;;5021742;28;20689;-84
2022/09/17 01:26:53;;;;;;;5.30;1.80;;;;;;;;;;4999481;28;20042;-84
2022/09/17 01:29:56;;;;;;;3.35;1.73;;;;;;;;;;5021500;28;20033;-84
2022/09/17 01:32:38;;;;;;;3.15;1.58;;;;;;;;;;5022644;28;20483;-84
2022/09/17 01:35:18;;;;;;;2.67;1.63;;;;;;;;;;5023784;28;20069;-84
2022/09/17 01:38:15;;;;;;;4.78;2.00;;;;;;;;;;5022487;28;20041;-82
2022/09/17 01:40:50;;;;;;;4.22;1.60;;;;;;;;;;4998241;28;20038;-84
2022/09/17 01:43:37;;;;;;;2.90;1.70;;;;;;;;;;5022413;28;20049;-84
2022/09/17 01:46:11;;;;;;;2.58;1.70;;;;;;;;;;5022772;28;20049;-84
2022/09/17 01:48:43;;;;;;;5.97;1.70;;;;;;;;;;5024636;28;20040;-84
2022/09/17 01:51:16;;;;;;;3.20;1.73;;;;;;;;;;5023464;28;20397;-84
2022/09/17 01:53:50;;;;;;;3.95;1.55;;;;;;;;;;5025431;28;20045;-85
2022/09/17 01:56:21;;;;;;;2.50;1.40;;;;;;;;;;5022277;28;20042;-84
2022/09/17 01:58:56;;;;;;;2.35;1.35;;;;;;;;;;5022194;28;20053;-84
2022/09/17 02:01:24;;;;;;;2.08;1.40;;;;;;;;;;5023179;28;20046;-84
2022/09/17 02:04:00;;;;;;;3.28;1.30;;;;;;;;;;5021191;28;20033;-84
2022/09/17 02:06:31;;;;;;;2.67;1.30;;;;;;;;;;5024351;28;20052;-84
2022/09/17 02:09:02;;;;;;;2.20;1.40;;;;;;;;;;5005090;28;20107;-84
2022/09/17 02:11:27;;;;;;;2.88;1.30;;;;;;;;;;5022132;28;20042;-84
2022/09/17 02:13:58;;;;;;;3.92;1.48;;;;;;;;;;5020914;28;20422;-83
2022/09/17 02:16:48;;;;;;;2.20;1.40;;;;;;;;;;5018534;28;20097;-84
2022/09/17 02:19:30;;;;;;;2.45;1.50;;;;;;;;;;5021264;28;20041;-84
2022/09/17 02:22:11;;;;;;;2.35;1.27;;;;;;;;;;5022790;28;20065;-84
2022/09/17 02:24:45;;;;;;;2.85;1.30;;;;;;;;;;5021371;28;20034;-84
2022/09/17 02:27:29;;;;;;;2.53;1.30;;;;;;;;;;5021552;28;20041;-84
2022/09/17 02:29:55;;;;;;;1.73;1.20;;;;;;;;;;5003789;28;20033;-84
2022/09/17 02:32:20;;;;;;;1.80;1.20;;;;;;;;;;5020562;28;20493;-85
2022/09/17 02:34:46;;;;;;;2.60;1.20;;;;;;;;;;5021574;28;20088;-85
2022/09/17 02:37:12;;;;;;;1.60;1.10;;;;;;;;;;5023300;28;20045;-84
2022/09/17 02:39:37;;;;;;;3.28;1.10;;;;;;;;;;5020809;28;20041;-84
2022/09/17 02:42:09;;;;;;;2.42;1.10;;;;;;;;;;5022017;28;20038;-84
2022/09/17 02:44:55;;;;;;;4.80;1.20;;;;;;;;;;5020799;28;20034;-84
2022/09/17 02:47:43;;;;;;;2.40;1.63;;;;;;;;;;5020252;28;20033;-84
2022/09/17 02:50:23;;;;;;;2.42;1.02;;;;;;;;;;5020462;28;20045;-84
2022/09/17 02:53:21;;;;;;;1.88;1.10;;;;;;;;;;5022135;28;20061;-84
2022/09/17 02:56:01;;;;;;;2.95;1.30;;;;;;;;;;5020767;28;20029;-85
2022/09/17 02:58:36;;;;;;;1.75;1.10;;;;;;;;;;5019710;28;20106;-84
2022/09/17 03:01:06;;;;;;;2.42;1.20;;;;;;;;;;5021001;28;20041;-84
2022/09/17 03:03:34;;;;;;;5.55;1.17;;;;;;;;;;5020482;28;20041;-83
2022/09/17 03:06:00;;;;;;;2.15;1.20;;;;;;;;;;5019729;28;20026;-84
2022/09/17 03:08:34;;;;;;;2.97;1.10;;;;;;;;;;5019396;28;20510;-84
2022/09/17 03:10:59;;;;;;;3.28;1.30;;;;;;;;;;5019481;28;20029;-83
2022/09/17 03:13:25;;;;;;;3.05;1.15;;;;;;;;;;5022461;28;20590;-84
2022/09/17 03:15:50;;;;;;;1.95;1.10;;;;;;;;;;5002551;28;20041;-84
2022/09/17 03:18:16;;;;;;;5.95;1.17;;;;;;;;;;5019018;28;20541;-85
2022/09/17 03:20:41;;;;;;;1.40;1.00;;;;;;;;;;5019854;28;20042;-84
2022/09/17 03:23:07;;;;;;;4.57;1.30;;;;;;;;;;5020967;28;20030;-84
2022/09/17 03:25:32;;;;;;;2.42;1.20;;;;;;;;;;5020048;28;20406;-85
2022/09/17 03:27:58;;;;;;;2.03;1.27;;;;;;;;;;5021612;28;20030;-84
2022/09/17 03:30:23;;;;;;;2.08;1.17;;;;;;;;;;5019832;28;20065;-84
2022/09/17 03:32:49;;;;;;;3.08;1.20;;;;;;;;;;5018715;28;20041;-85
2022/09/17 03:35:15;;;;;;;3.30;1.20;;;;;;;;;;5000920;28;20076;-84
2022/09/17 03:37:40;;;;;;;3.75;1.27;;;;;;;;;;5019065;28;20034;-84
2022/09/17 03:40:06;;;;;;;2.55;1.30;;;;;;;;;;5019431;28;20508;-84
2022/09/17 03:42:32;;;;;;;2.00;1.10;;;;;;;;;;5019256;28;20044;-84
2022/09/17 03:44:57;;;;;;;2.00;1.10;;;;;;;;;;5017489;28;20034;-84
2022/09/17 03:47:23;;;;;;;2.30;1.10;;;;;;;;;;5019465;28;20088;-84
2022/09/17 03:49:48;;;;;;;4.72;1.40;;;;;;;;;;5021559;28;20069;-84
2022/09/17 03:52:13;;;;;;;1.90;1.30;;;;;;;;;;5018996;28;20090;-84
2022/09/17 03:54:39;;;;;;;4.90;1.42;;;;;;;;;;5018297;28;20036;-84
2022/09/17 03:57:04;;;;;;;3.15;1.30;;;;;;;;;;5019474;28;20045;-84
2022/09/17 03:59:30;;;;;;;2.47;1.40;;;;;;;;;;5017716;28;20504;-84
2022/09/17 04:01:56;;;;;;;2.78;1.40;;;;;;;;;;5018676;28;20525;-84
2022/09/17 04:04:21;;;;;;;3.75;1.40;;;;;;;;;;5016888;28;20519;-84
2022/09/17 04:06:48;;;;;;;3.55;1.38;;;;;;;;;;5017650;28;20045;-84
2022/09/17 04:09:13;;;;;;;2.28;1.30;;;;;;;;;;5020859;28;20029;-82
2022/09/17 04:11:39;;;;;;;2.15;1.30;;;;;;;;;;5017907;28;20106;-84
2022/09/17 04:14:04;;;;;;;3.60;1.50;;;;;;;;;;5017120;28;20034;-84
2022/09/17 04:16:29;;;;;;;4.35;1.48;;;;;;;;;;5018619;28;20026;-84
2022/09/17 04:18:55;;;;;;;2.10;1.50;;;;;;;;;;5017854;28;20033;-84
2022/09/17 04:21:20;;;;;;;2.80;1.48;;;;;;;;;;5018294;28;20034;-84
2022/09/17 04:23:46;;;;;;;1.77;1.40;;;;;;;;;;5019972;28;20398;-84
2022/09/17 04:26:11;;;;;;;2.33;1.30;;;;;;;;;;5018775;28;20034;-84
2022/09/17 04:28:37;;;;;;;3.17;1.38;;;;;;;;;;5018674;28;20040;-84
2022/09/17 04:31:02;;;;;;;2.95;1.40;;;;;;;;;;5017029;28;20026;-84
2022/09/17 04:33:28;;;;;;;2.00;1.40;;;;;;;;;;5017998;28;20116;-84
2022/09/17 04:35:53;;;;;;;2.95;1.30;;;;;;;;;;5017785;28;20453;-84
2022/09/17 04:38:19;;;;;;;3.70;1.35;;;;;;;;;;5017834;28;20096;-84
2022/09/17 04:40:45;;;;;;;2.80;1.40;;;;;;;;;;5002870;28;20137;-84
2022/09/17 04:43:11;;;;;;;2.58;1.33;;;;;;;;;;5017543;28;20471;-84
2022/09/17 04:45:36;;;;;;;2.88;1.30;;;;;;;;;;5018749;28;20034;-84
2022/09/17 04:48:02;;;;;;;3.53;1.30;;;;;;;;;;5016349;28;20037;-84
2022/09/17 04:50:28;;;;;;;2.17;1.30;;;;;;;;;;5019212;28;20085;-84
2022/09/17 04:52:53;;;;;;;3.10;1.40;;;;;;;;;;5024074;28;20508;-85
2022/09/17 04:55:19;;;;;;;1.95;1.30;;;;;;;;;;5025366;28;20061;-85
2022/09/17 04:57:48;;;;;;;3.00;1.38;;;;;;;;;;5025820;28;20030;-85
2022/09/17 05:00:16;;;;;;;2.25;1.20;;;;;;;;;;5025938;28;20037;-85
2022/09/17 05:02:47;;;;;;;1.40;1.10;;;;;;;;;;5023305;28;20411;-85
2022/09/17 05:05:13;;;;;;;2.25;1.17;;;;;;;;;;5020616;28;20038;-84
2022/09/17 05:07:39;;;;;;;2.42;1.30;;;;;;;;;;5022981;28;20026;-85
2022/09/17 05:10:05;;;;;;;1.90;1.10;;;;;;;;;;5023746;28;20084;-85
2022/09/17 05:12:31;;;;;;;2.70;1.20;;;;;;;;;;5021653;28;20060;-85
2022/09/17 05:14:56;;;;;;;3.28;1.10;;;;;;;;;;5023804;28;20057;-85
2022/09/17 05:17:22;;;;;;;2.33;1.20;;;;;;;;;;5021260;28;20061;-85
2022/09/17 05:19:47;;;;;;;2.25;1.13;;;;;;;;;;5023740;28;20052;-85
2022/09/17 05:22:12;;;;;;;2.72;1.40;;;;;;;;;;5022507;28;20030;-85
2022/09/17 05:24:38;;;;;;;2.47;1.13;;;;;;;;;;5022104;28;20091;-85
2022/09/17 05:27:05;;;;;;;3.45;1.30;;;;;;;;;;5022038;28;20034;-85
2022/09/17 05:29:31;;;;;;;2.47;1.20;;;;;;;;;;5023605;28;20050;-85
2022/09/17 05:31:56;;;;;;;4.47;1.23;;;;;;;;;;5021864;28;20030;-85
2022/09/17 05:34:22;;;;;;;2.70;1.25;;;;;;;;;;5021925;28;20034;-85
2022/09/17 05:36:48;;;;;;;4.72;1.30;;;;;;;;;;5022093;28;20032;-85
2022/09/17 05:39:13;;;;;;;3.13;1.30;;;;;;;;;;5022567;28;20459;-85
2022/09/17 05:41:39;;;;;;;4.22;1.52;;;;;;;;;;5022158;28;20065;-85
2022/09/17 05:44:04;;;;;;;4.55;1.42;;;;;;;;;;5021774;28;20053;-85
2022/09/17 05:46:30;;;;;;;5.03;1.40;;;;;;;;;;5020685;28;20038;-85
2022/09/17 05:48:56;;;;;;;5.50;1.50;;;;;;;;;;5022800;28;20037;-85
2022/09/17 05:51:22;;;;;;;3.45;1.50;;;;;;;;;;5021319;28;20112;-85
2022/09/17 05:53:48;;;;;;;3.85;1.40;;;;;;;;;;5020039;28;20050;-85
2022/09/17 05:56:14;;;;;;;4.15;1.38;;;;;;;;;;5013748;28;20540;-84
2022/09/17 05:58:39;;;;;;;3.47;1.67;;;;;;;;;;5006214;28;20469;-85
2022/09/17 06:01:04;;;;;;;6.95;2.97;;;;;;;;;;5012413;28;20057;-85
2022/09/17 06:03:30;;;;;;;5.95;2.63;;;;;;;;;;5020766;28;20087;-85
2022/09/17 06:05:57;;;;;;;4.65;2.40;;;;;;;;;;5020850;28;20091;-85
2022/09/17 06:08:24;;;;;;;7.85;2.33;;;;;;;;;;5021895;28;20033;-85
2022/09/17 06:10:50;;;;;;;7.60;2.00;;;;;;;;;;5019256;28;20049;-85
2022/09/17 06:13:19;;;;;;;3.00;1.48;;;;;;;;;;5025071;28;20022;-85
2022/09/17 06:15:50;;;;;;;3.85;1.55;;;;;;;;;;5025994;28;20030;-84
2022/09/17 06:18:15;;;;;;;4.72;1.50;;;;;;;;;;5021584;28;20034;-84
2022/09/17 06:20:41;;;;;;;4.72;1.50;;;;;;;;;;5013218;28;20057;-85
2022/09/17 06:23:07;;;;;;;2.78;1.30;;;;;;;;;;5009681;28;20503;-84
2022/09/17 06:25:32;;;;;;;5.70;1.27;;;;;;;;;;5014315;28;20030;-84
2022/09/17 06:28:00;;;;;;;3.45;1.30;;;;;;;;;;5020672;28;20029;-84
2022/09/17 06:30:26;;;;;;;3.53;1.20;;;;;;;;;;5021395;28;20034;-83
2022/09/17 06:32:51;;;;;;;4.28;1.98;;;;;;;;;;5017512;28;20113;-85
2022/09/17 06:35:17;;;;;;;4.35;2.88;;;;;;;;;;5009932;28;20098;-85
2022/09/17 06:37:42;;;;;;;3.70;1.65;;;;;;;;;;5010885;28;20027;-86
2022/09/17 06:40:08;;;;;;;5.78;1.90;;;;;;;;;;5010117;28;20034;-86
2022/09/17 06:42:34;;;;;;;4.38;1.30;;;;;;;;;;5010017;28;20046;-85
2022/09/17 06:44:59;;;;;;;5.20;1.58;;;;;;;;;;4983889;28;20392;-85
2022/09/17 06:47:25;;;;;;;3.42;2.13;;;;;;;;;;5014148;28;20088;-85
2022/09/17 06:49:50;;;;;;;3.03;1.60;;;;;;;;;;5019668;28;20037;-84
2022/09/17 06:52:16;;;;;;;3.38;1.58;;;;;;;;;;5019219;28;20037;-84
2022/09/17 06:54:41;;;;;;;2.67;1.40;;;;;;;;;;5019851;28;20033;-84
2022/09/17 06:57:07;;;;;;;3.63;1.90;;;;;;;;;;5019933;28;20038;-84
2022/09/17 06:59:32;;;;;;;2.97;1.80;;;;;;;;;;5017877;28;20042;-85
2022/09/17 07:01:58;;;;;;;2.80;1.42;;;;;;;;;;5018784;28;20037;-84
2022/09/17 07:04:23;;;;;;;2.50;1.15;;;;;;;;;;5019536;28;20040;-84
2022/09/17 07:06:49;;;;;;;2.50;1.50;;;;;;;;;;5020125;28;20061;-84
2022/09/17 07:09:14;;;;;;;1.75;1.30;;;;;;;;;;5018973;28;20399;-84
2022/09/17 07:11:40;;;;;;;3.30;1.50;;;;;;;;;;5017598;28;20038;-87
2022/09/17 07:14:05;;;;;;;3.10;1.50;;;;;;;;;;5019291;28;20129;-83
2022/09/17 07:16:34;;;;;;;2.47;1.30;;;;;;;;;;5020434;28;20079;-85
2022/09/17 07:19:04;;;;;;;4.63;1.30;;;;;;;;;;5016378;28;20045;-85
2022/09/17 07:21:29;;;;;;;4.22;1.40;;;;;;;;;;5017743;28;20033;-85
2022/09/17 07:23:55;;;;;;;3.33;1.38;;;;;;;;;;5016791;28;20176;-84
2022/09/17 07:26:21;;;;;;;5.57;1.60;;;;;;;;;;5015823;28;20049;-85
2022/09/17 07:28:46;;;;;;;3.78;1.40;;;;;;;;;;5018839;28;20037;-84
2022/09/17 07:31:12;;;;;;;3.25;1.45;;;;;;;;;;5020628;28;20084;-85
2022/09/17 07:33:39;;;;;;;3.60;1.40;;;;;;;;;;5003701;28;20045;-85
2022/09/17 07:36:07;;;;;;;3.67;1.60;;;;;;;;;;5021158;28;20037;-85
2022/09/17 07:38:34;;;;;;;2.85;1.58;;;;;;;;;;5024502;28;20037;-86
2022/09/17 07:41:04;;;;;;;3.05;1.40;;;;;;;;;;5021197;28;20030;-87
2022/09/17 07:43:32;;;;;;;3.20;1.40;;;;;;;;;;5017074;28;20030;-85
2022/09/17 07:45:59;;;;;;;2.25;1.40;;;;;;;;;;5016637;28;20089;-85
2022/09/17 07:48:25;;;;;;;5.78;1.55;;;;;;;;;;5016420;28;20034;-85
2022/09/17 07:50:51;;;;;;;4.55;1.50;;;;;;;;;;5016343;28;20038;-85
2022/09/17 07:53:17;;;;;;;2.58;1.40;;;;;;;;;;5017085;28;20041;-84
2022/09/17 07:55:50;;;;;;;2.70;1.30;;;;;;;;;;5017135;28;20045;-84
2022/09/17 07:58:15;;;;;;;3.05;1.48;;;;;;;;;;4999502;28;20113;-84
2022/09/17 08:00:42;;;;;;;4.00;1.55;;;;;;;;;;5017808;28;20076;-84
2022/09/17 08:03:07;;;;;;;4.95;1.50;;;;;;;;;;5016904;28;20028;-84
2022/09/17 08:05:33;;;;;;;3.30;1.30;;;;;;;;;;5018889;28;20034;-84
2022/09/17 08:07:58;;;;;;;5.32;1.48;;;;;;;;;;5018784;28;20045;-85
2022/09/17 08:10:25;;;;;;;5.13;1.40;;;;;;;;;;5018504;28;20040;-84
2022/09/17 08:12:55;;;;;;;3.92;1.50;;;;;;;;;;5017067;28;20129;-84
2022/09/17 08:15:21;;;;;;;3.42;1.30;;;;;;;;;;5021541;28;20034;-84
2022/09/17 08:17:47;;;;;;;3.40;1.60;;;;;;;;;;5015902;28;20084;-84
2022/09/17 08:20:14;;;;;;;3.80;1.67;;;;;;;;;;5006895;28;20026;-85
2022/09/17 08:22:40;;;;;;;3.47;1.50;;;;;;;;;;5005189;28;20034;-84
2022/09/17 08:25:07;;;;;;;3.30;1.38;;;;;;;;;;5010282;28;20026;-85
2022/09/17 08:27:33;;;;;;;5.07;1.48;;;;;;;;;;5017482;28;20406;-86
2022/09/17 08:29:58;;;;;;;5.97;1.65;;;;;;;;;;5023313;28;20048;-83
2022/09/17 08:32:24;;;;;;;3.40;1.40;;;;;;;;;;5023205;28;20037;-85
2022/09/17 08:34:50;;;;;;;4.20;1.42;;;;;;;;;;5019166;28;20037;-85
2022/09/17 08:37:15;;;;;;;3.25;1.20;;;;;;;;;;5019135;28;20037;-85
2022/09/17 08:39:41;;;;;;;5.43;1.27;;;;;;;;;;5013708;28;20030;-83
2022/09/17 08:42:25;;;;;;;4.78;1.15;;;;;;;;;;5019544;28;20030;-84
2022/09/17 08:44:52;;;;;;;7.95;1.55;;;;;;;;;;5019544;28;20040;-85
2022/09/17 08:47:55;;;;;;;1.85;1.13;;;;;;;;;;5001545;28;20132;-84
2022/09/17 08:50:31;;;;;;;7.55;2.67;;;;;;;;;;4942601;29;20038;-85
2022/09/17 08:53:15;;;;;;;5.28;1.50;;;;;;;;;;5014080;28;20187;-85
2022/09/17 08:55:55;;;;;;;;;;;;;;;;;;5014164;28;20034;-83
2022/09/17 08:58:39;;;;;;;6.25;1.10;;;;;;;;;;5015639;28;19917;-83
2022/09/17 09:01:23;;;;;;;;;;;;;;;;;;5017021;28;20042;-83
2022/09/17 09:04:13;;;;;;;3.17;0.95;;;;;;;;;;5014404;28;19973;-85
2022/09/17 09:06:48;;;;;;;3.47;1.10;;;;;;;;;;5015115;28;20046;-83
2022/09/17 09:09:16;;;;;;;6.88;1.20;;;;;;;;;;5016093;28;20041;-83
2022/09/17 09:11:43;;;;;;;2.97;1.00;;;;;;;;;;5014431;28;20538;-83
2022/09/17 09:14:19;;;;;;;3.85;1.27;;;;;;;;;;4997790;28;20042;-83
2022/09/17 09:16:46;;;;;;;2.80;1.00;;;;;;;;;;5014802;28;20491;-83
2022/09/17 09:19:20;;;;;;;2.38;0.90;;;;;;;;;;4998594;28;20034;-83
2022/09/17 09:22:10;;;;;;;4.88;1.10;;;;;;;;;;5015835;28;20038;-83
2022/09/17 09:25:02;;;;;;;4.75;1.10;;;;;;;;;;5014312;28;20449;-82
2022/09/17 09:27:35;;;;;;;3.80;1.65;;;;;;;;;;5014895;28;20071;-83
2022/09/17 09:30:05;;;;;;;4.88;1.60;;;;;;;;;;5015763;28;20096;-83
2022/09/17 09:32:49;;;;;;;4.68;1.48;;;;;;;;;;5015563;28;20069;-82
2022/09/17 09:35:18;;;;;;;3.92;1.30;;;;;;;;;;5001014;28;20029;-82
2022/09/17 09:37:56;;;;;;;5.85;0.98;;;;;;;;;;5019788;28;20068;-83
2022/09/17 09:40:28;;;;;;;7.68;1.13;;;;;;;;;;5018425;28;20037;-83
2022/09/17 09:43:00;;;;;;;4.60;1.60;;;;;;;;;;5019336;28;20037;-83
2022/09/17 09:45:48;;;;;;;6.85;2.65;;;;;;;;;;5018504;28;20056;-83
2022/09/17 09:48:32;;;;;;;3.80;1.10;;;;;;;;;;5018865;28;20041;-81
2022/09/17 09:51:10;;;;;;;5.65;1.50;;;;;;;;;;5019757;28;20399;-82
2022/09/17 09:53:45;;;;;;;3.53;1.05;;;;;;;;;;5018496;28;20033;-83
2022/09/17 09:56:42;;;;;;;3.10;1.10;;;;;;;;;;5018656;28;20052;-83
2022/09/17 09:59:11;;;;;;;4.95;1.33;;;;;;;;;;5020025;28;20033;-83
2022/09/17 10:01:40;;;;;;;8.52;1.20;;;;;;;;;;5021587;28;20399;-85
2022/09/17 10:04:25;;;;;;;3.83;1.00;;;;;;;;;;5020331;28;20034;-80
2022/09/17 10:07:08;;;;;;;6.35;1.08;;;;;;;;;;5019950;28;20479;-85
2022/09/17 10:09:36;;;;;;;4.50;1.00;;;;;;;;;;5022865;28;20053;-84
2022/09/17 10:12:05;;;;;;;1.60;0.80;;;;;;;;;;5020441;28;20038;-84
2022/09/17 10:14:33;;;;;;;5.32;1.17;;;;;;;;;;5022030;28;20034;-85
2022/09/17 10:17:15;;;;;;;3.58;0.90;;;;;;;;;;5005075;28;20042;-85
2022/09/17 10:19:42;;;;;;;3.45;1.00;;;;;;;;;;5021689;28;20506;-84
2022/09/17 10:22:35;;;;;;;3.28;1.10;;;;;;;;;;5024838;28;20026;-84
2022/09/17 10:25:02;;;;;;;2.72;0.80;;;;;;;;;;4994791;28;20069;-85
2022/09/17 10:27:29;;;;;;;5.78;1.10;;;;;;;;;;5022984;28;20049;-85
2022/09/17 10:30:07;;;;;;;1.75;0.90;;;;;;;;;;5024814;28;20164;-84
2022/09/17 10:32:33;;;;;;;3.13;1.10;;;;;;;;;;5024748;28;20141;-84
2022/09/17 10:35:14;;;;;;;4.22;1.10;;;;;;;;;;5012080;28;20506;-84
2022/09/17 10:37:51;;;;;;;1.75;0.82;;;;;;;;;;5007757;28;20030;-85
2022/09/17 10:40:17;;;;;;;2.10;0.88;;;;;;;;;;5008359;28;20034;-85
2022/09/17 10:42:43;;;;;;;3.83;1.10;;;;;;;;;;5007177;28;20458;-85
2022/09/17 10:45:23;;;;;;;3.90;1.10;;;;;;;;;;5007297;28;20070;-85
2022/09/17 10:47:49;;;;;;;5.95;1.10;;;;;;;;;;5007632;28;20037;-85
2022/09/17 10:50:17;;;;;;;3.47;1.20;;;;;;;;;;5008420;28;20095;-85
2022/09/17 10:52:48;;;;;;;2.70;1.10;;;;;;;;;;5007474;28;20069;-84
2022/09/17 10:55:36;;;;;;;3.78;1.30;;;;;;;;;;5001651;28;20037;-84
2022/09/17 10:58:06;;;;;;;2.10;0.90;;;;;;;;;;5004635;28;20057;-85
2022/09/17 11:00:38;;;;;;;2.47;0.90;;;;;;;;;;5012668;28;20038;-85
2022/09/17 11:03:21;;;;;;;2.85;1.00;;;;;;;;;;5009535;28;20558;-87
2022/09/17 11:05:59;;;;;;;5.10;1.58;;;;;;;;;;5011968;28;20430;-85
2022/09/17 11:08:43;;;;;;;5.07;1.20;;;;;;;;;;5014456;28;20030;-86
2022/09/17 11:11:10;;;;;;;;;;;;;;;;;;5008346;28;20056;-85
2022/09/17 11:13:50;;;;;;;5.30;1.55;;;;;;;;;;5001852;28;19920;-85
2022/09/17 11:16:35;;;;;;;4.95;1.27;;;;;;;;;;5001203;28;20042;-85
2022/09/17 11:19:37;;;;;;;3.05;1.10;;;;;;;;;;5001359;28;20046;-85
2022/09/17 11:22:11;;;;;;;3.50;1.20;;;;;;;;;;5002188;28;20046;-85
2022/09/17 11:24:59;;;;;;;5.13;1.30;;;;;;;;;;5003817;28;20030;-85
2022/09/17 11:27:55;;;;;;;2.05;1.20;;;;;;;;;;5002968;28;20097;-85
2022/09/17 11:30:22;;;;;;;6.00;1.50;;;;;;;;;;5002176;28;20125;-85
2022/09/17 11:32:59;;;;;;;5.55;1.60;;;;;;;;;;5002740;28;20038;-84
2022/09/17 11:35:47;;;;;;;2.88;1.40;;;;;;;;;;5004134;28;20038;-85
2022/09/17 11:38:42;;;;;;;2.33;1.20;;;;;;;;;;5002789;28;20068;-85
2022/09/17 11:41:24;;;;;;;3.33;1.40;;;;;;;;;;5004702;28;20078;-87
2022/09/17 11:44:14;;;;;;;7.70;1.70;;;;;;;;;;5002604;28;20034;-86
2022/09/17 11:46:45;;;;;;;2.65;1.20;;;;;;;;;;5005105;28;20049;-86
2022/09/17 11:49:15;;;;;;;5.72;1.17;;;;;;;;;;5002285;28;20045;-85
2022/09/17 11:51:51;;;;;;;5.50;1.45;;;;;;;;;;4999885;28;20513;-85
2022/09/17 11:54:38;;;;;;;3.58;1.30;;;;;;;;;;4984171;28;20434;-85
2022/09/17 11:57:15;;;;;;;3.45;1.35;;;;;;;;;;4984774;28;20488;-85
2022/09/17 11:59:50;;;;;;;4.75;1.42;;;;;;;;;;5003285;28;20044;-85
2022/09/17 12:02:37;;;;;;;4.15;1.63;;;;;;;;;;4980389;28;20038;-90
2022/09/17 12:05:20;;;;;;;2.95;1.20;;;;;;;;;;4996321;28;20132;-89
2022/09/17 12:07:46;;;;;;;2.22;1.48;;;;;;;;;;5001315;28;20105;-87
2022/09/17 12:10:14;;;;;;;5.10;1.45;;;;;;;;;;5001254;28;20061;-89
2022/09/17 12:12:48;;;;;;;5.55;1.50;;;;;;;;;;4996756;28;20030;-89
2022/09/17 12:15:23;;;;;;;2.63;1.20;;;;;;;;;;4997368;28;20030;-88
2022/09/17 12:18:13;;;;;;;1.65;0.80;;;;;;;;;;4985197;28;20044;-86
2022/09/17 12:20:43;;;;;;;1.00;0.80;;;;;;;;;;5003824;28;20111;-86
2022/09/17 12:23:13;;;;;;;1.63;0.77;;;;;;;;;;5002759;28;20049;-85
2022/09/17 12:26:03;;;;;;;1.60;0.80;;;;;;;;;;5000565;28;20038;-86
2022/09/17 12:28:41;;;;;;;1.80;0.80;;;;;;;;;;5001832;28;20042;-86
2022/09/17 12:31:19;;;;;;;4.35;1.02;;;;;;;;;;5002009;28;20049;-86
2022/09/17 12:33:56;;;;;;;1.35;0.70;;;;;;;;;;5002605;28;20034;-85
2022/09/17 12:36:56;;;;;;;3.42;0.90;;;;;;;;;;5001403;28;20050;-86
2022/09/17 12:39:49;;;;;;;1.95;0.70;;;;;;;;;;5001257;28;20477;-86
2022/09/17 12:42:33;;;;;;;1.77;0.98;;;;;;;;;;5002178;28;20033;-85
2022/09/17 12:45:29;;;;;;;1.98;0.70;;;;;;;;;;5001746;28;20045;-86
2022/09/17 12:48:25;;;;;;;2.53;0.70;;;;;;;;;;5002129;28;20046;-86
2022/09/17 12:51:18;;;;;;;7.57;1.33;;;;;;;;;;4999702;28;20051;-86
2022/09/17 12:54:14;;;;;;;2.40;0.90;;;;;;;;;;5005244;28;20038;-85
2022/09/17 12:57:08;;;;;;;2.70;1.20;;;;;;;;;;5000542;28;20110;-86
2022/09/17 12:59:37;;;;;;;1.85;0.90;;;;;;;;;;4998299;28;20137;-85
2022/09/17 13:02:14;;;;;;;3.13;0.80;;;;;;;;;;5000030;28;20066;-86
2022/09/17 13:04:58;;;;;;;3.63;2.05;;;;;;;;;;4998888;28;20042;-86
2022/09/17 13:07:24;;;;;;;2.60;0.88;;;;;;;;;;4998226;28;20040;-85
2022/09/17 13:10:27;;;;;;;1.92;1.00;;;;;;;;;;4998835;28;20102;-85
2022/09/17 13:12:59;;;;;;;5.30;1.48;;;;;;;;;;4999032;28;20487;-85
2022/09/17 13:15:49;;;;;;;5.55;1.30;;;;;;;;;;4999809;28;20058;-86
2022/09/17 13:18:47;;;;;;;3.60;0.90;;;;;;;;;;5000287;28;20049;-85
2022/09/17 13:21:19;;;;;;;1.40;0.90;;;;;;;;;;5000193;28;20053;-85
2022/09/17 13:23:48;;;;;;;1.33;0.80;;;;;;;;;;5001033;28;20038;-86
2022/09/17 13:26:17;;;;;;;2.17;0.80;;;;;;;;;;4997926;28;20070;-85
2022/09/17 13:28:50;;;;;;;2.75;0.90;;;;;;;;;;4999463;28;20033;-85
2022/09/17 13:31:43;;;;;;;1.98;0.80;;;;;;;;;;4998041;28;20116;-85
2022/09/17 13:34:17;;;;;;;2.33;0.80;;;;;;;;;;4999211;28;20092;-85
2022/09/17 13:36:53;;;;;;;1.80;0.90;;;;;;;;;;4998910;28;20046;-85
2022/09/17 13:39:39;;;;;;;2.00;1.10;;;;;;;;;;4998935;28;20042;-85
2022/09/17 13:42:14;;;;;;;1.92;0.93;;;;;;;;;;4999009;28;20113;-85
2022/09/17 13:44:44;;;;;;;2.78;0.85;;;;;;;;;;4998089;28;20046;-85
2022/09/17 13:47:14;;;;;;;1.35;0.80;;;;;;;;;;4997676;28;20089;-85
2022/09/17 13:49:50;;;;;;;2.05;0.85;;;;;;;;;;4997760;28;20038;-85
2022/09/17 13:52:49;;;;;;;1.25;0.70;;;;;;;;;;5000546;28;20042;-85
2022/09/17 13:55:37;;;;;;;1.38;0.70;;;;;;;;;;4955320;28;20043;-85
2022/09/17 13:58:23;;;;;;;2.35;1.00;;;;;;;;;;4997721;28;20046;-84
2022/09/17 14:00:58;;;;;;;4.13;2.08;;;;;;;;;;5000708;28;20038;-85
2022/09/17 14:03:30;;;;;;;2.60;1.20;;;;;;;;;;5000713;28;20118;-86
2022/09/17 14:06:04;;;;;;;4.05;1.27;;;;;;;;;;4999198;28;20034;-85
2022/09/17 14:08:42;;;;;;;3.28;1.20;;;;;;;;;;4998038;28;20061;-84
2022/09/17 14:11:23;;;;;;;4.80;2.03;;;;;;;;;;4998700;28;20034;-85
2022/09/17 14:13:50;;;;;;;4.15;1.30;;;;;;;;;;4999579;28;20090;-84
2022/09/17 14:16:32;;;;;;;3.75;2.10;;;;;;;;;;4997182;28;20181;-85
2022/09/17 14:19:21;;;;;;;4.78;2.90;;;;;;;;;;4993431;28;20419;-86
2022/09/17 14:21:55;;;;;;;2.05;1.20;;;;;;;;;;4998161;28;20034;-85
2022/09/17 14:24:23;;;;;;;2.67;1.42;;;;;;;;;;4997920;28;20037;-86
2022/09/17 14:26:51;;;;;;;2.42;1.35;;;;;;;;;;4997857;28;20093;-85
2022/09/17 14:29:23;;;;;;;2.20;0.90;;;;;;;;;;4996656;28;20049;-85
2022/09/17 14:31:48;;;;;;;1.10;0.80;;;;;;;;;;4996855;28;20109;-85
2022/09/17 14:34:20;;;;;;;0.70;0.70;;;;;;;;;;4997456;28;20129;-84
2022/09/17 14:36:46;;;;;;;1.23;0.80;;;;;;;;;;4998003;28;20053;-86
2022/09/17 14:39:38;;;;;;;1.73;0.80;;;;;;;;;;4997900;28;20026;-85
2022/09/17 14:42:12;;;;;;;2.22;0.85;;;;;;;;;;4999557;28;20039;-85
2022/09/17 14:44:55;;;;;;;1.80;1.00;;;;;;;;;;4998428;28;20034;-86
2022/09/17 14:47:21;;;;;;;2.63;1.20;;;;;;;;;;4998715;28;20030;-86
2022/09/17 14:49:47;;;;;;;3.97;1.30;;;;;;;;;;4998322;28;20403;-85
2022/09/17 14:52:24;;;;;;;2.33;1.30;;;;;;;;;;4997269;28;20109;-83
2022/09/17 14:55:17;;;;;;;1.52;1.00;;;;;;;;;;4997696;28;20133;-86
2022/09/17 14:57:54;;;;;;;1.75;1.17;;;;;;;;;;4997079;28;20092;-85
2022/09/17 15:00:26;;;;;;;1.08;0.77;;;;;;;;;;4998196;28;20089;-85
2022/09/17 15:02:54;;;;;;;2.30;0.80;;;;;;;;;;4999584;28;20105;-85
2022/09/17 15:05:24;;;;;;;2.10;1.00;;;;;;;;;;4998794;28;20125;-85
2022/09/17 15:07:50;;;;;;;2.38;1.27;;;;;;;;;;5000261;28;20030;-86
2022/09/17 15:10:21;;;;;;;1.95;0.80;;;;;;;;;;4999297;28;20049;-86
2022/09/17 15:12:49;;;;;;;1.33;0.80;;;;;;;;;;4998623;28;20430;-85
2022/09/17 15:15:20;;;;;;;1.67;0.95;;;;;;;;;;4998919;28;20108;-84
2022/09/17 15:17:47;;;;;;;3.58;1.10;;;;;;;;;;5000470;28;20065;-84